sensor_id;sensor_type;location;lat;lon;timestamp;temperature;humidity
14144;DHT22;7152;48.348;10.980;2022-08-03T00:01:32;19.00;99.90
14144;DHT22;7152;48.348;10.980;2022-08-03T00:03:58;19.00;99.90
14144;DHT22;7152;48.348;10.980;2022-08-03T00:06:23;18.90;99.90
14144;DHT22;7152;48.348;10.980;2022-08-03T00:08:49;18.90;99.90
14144;DHT22;7152;48.348;10.980;2022-08-03T00:11:15;18.90;99.90
14144;DHT22;7152;48.348;10.980;2022-08-03T00:13:40;18.80;99.90
14144;DHT22;7152;48.348;10.980;2022-08-03T00:16:06;18.80;99.90
14144;DHT22;7152;48.348;10.980;2022-08-03T00:18:32;18.80;99.90
14144;DHT22;7152;48.348;10.980;2022-08-03T00:20:57;18.70;99.90
14144;DHT22;7152;48.348;10.980;2022-08-03T00:23:23;18.70;99.90
14144;DHT22;7152;48.348;10.980;2022-08-03T00:25:49;18.70;99.90
14144;DHT22;7152;48.348;10.980;2022-08-03T00:28:14;18.60;99.90
14144;DHT22;7152;48.348;10.980;2022-08-03T00:30:40;18.60;99.90
14144;DHT22;7152;48.348;10.980;2022-08-03T00:33:06;18.60;99.90
14144;DHT22;7152;48.348;10.980;2022-08-03T00:35:31;18.50;99.90
14144;DHT22;7152;48.348;10.980;2022-08-03T00:37:57;18.50;99.90
14144;DHT22;7152;48.348;10.980;2022-08-03T00:40:23;18.50;99.90
14144;DHT22;7152;48.348;10.980;2022-08-03T00:43:00;18.50;99.90
14144;DHT22;7152;48.348;10.980;2022-08-03T00:45:28;18.50;99.90
14144;DHT22;7152;48.348;10.980;2022-08-03T00:47:55;18.50;99.90
14144;DHT22;7152;48.348;10.980;2022-08-03T00:50:22;18.50;99.90
14144;DHT22;7152;48.348;10.980;2022-08-03T00:52:50;18.60;99.90
14144;DHT22;7152;48.348;10.980;2022-08-03T00:55:16;18.60;99.90
14144;DHT22;7152;48.348;10.980;2022-08-03T00:57:42;18.60;99.90
14144;DHT22;7152;48.348;10.980;2022-08-03T01:00:09;18.60;99.90
14144;DHT22;7152;48.348;10.980;2022-08-03T01:02:38;18.60;99.90
14144;DHT22;7152;48.348;10.980;2022-08-03T01:05:05;18.60;99.90
14144;DHT22;7152;48.348;10.980;2022-08-03T01:11:00;18.60;99.90
14144;DHT22;7152;48.348;10.980;2022-08-03T01:13:47;18.60;99.90
14144;DHT22;7152;48.348;10.980;2022-08-03T01:16:27;18.60;99.90
14144;DHT22;7152;48.348;10.980;2022-08-03T01:19:01;18.50;99.90
14144;DHT22;7152;48.348;10.980;2022-08-03T01:21:58;18.50;99.90
14144;DHT22;7152;48.348;10.980;2022-08-03T01:30:08;18.30;99.90
14144;DHT22;7152;48.348;10.980;2022-08-03T01:32:51;18.20;99.90
14144;DHT22;7152;48.348;10.980;2022-08-03T01:35:42;18.20;99.90
14144;DHT22;7152;48.348;10.980;2022-08-03T01:38:12;18.20;99.90
14144;DHT22;7152;48.348;10.980;2022-08-03T01:40:39;18.10;99.90
14144;DHT22;7152;48.348;10.980;2022-08-03T01:43:08;18.10;99.90
14144;DHT22;7152;48.348;10.980;2022-08-03T01:45:35;18.00;99.90
14144;DHT22;7152;48.348;10.980;2022-08-03T01:48:02;18.00;99.90
14144;DHT22;7152;48.348;10.980;2022-08-03T01:50:30;18.00;99.90
14144;DHT22;7152;48.348;10.980;2022-08-03T01:52:57;18.00;99.90
14144;DHT22;7152;48.348;10.980;2022-08-03T01:55:24;18.00;99.90
14144;DHT22;7152;48.348;10.980;2022-08-03T01:57:53;18.00;99.90
14144;DHT22;7152;48.348;10.980;2022-08-03T02:00:19;18.00;99.90
14144;DHT22;7152;48.348;10.980;2022-08-03T02:02:48;17.90;99.90
14144;DHT22;7152;48.348;10.980;2022-08-03T02:05:15;17.90;99.90
14144;DHT22;7152;48.348;10.980;2022-08-03T02:07:44;17.90;99.90
14144;DHT22;7152;48.348;10.980;2022-08-03T02:10:12;17.80;99.90
14144;DHT22;7152;48.348;10.980;2022-08-03T02:12:42;17.80;99.90
14144;DHT22;7152;48.348;10.980;2022-08-03T02:15:10;17.80;99.90
14144;DHT22;7152;48.348;10.980;2022-08-03T02:17:37;17.70;99.90
14144;DHT22;7152;48.348;10.980;2022-08-03T02:20:03;17.70;99.90
14144;DHT22;7152;48.348;10.980;2022-08-03T02:22:32;17.60;99.90
14144;DHT22;7152;48.348;10.980;2022-08-03T02:24:58;17.60;99.90
14144;DHT22;7152;48.348;10.980;2022-08-03T02:27:26;17.60;99.90
14144;DHT22;7152;48.348;10.980;2022-08-03T02:29:55;17.60;99.90
14144;DHT22;7152;48.348;10.980;2022-08-03T02:32:30;17.50;99.90
14144;DHT22;7152;48.348;10.980;2022-08-03T02:34:58;17.50;99.90
14144;DHT22;7152;48.348;10.980;2022-08-03T02:37:27;17.50;99.90
14144;DHT22;7152;48.348;10.980;2022-08-03T02:40:02;17.40;99.90
14144;DHT22;7152;48.348;10.980;2022-08-03T02:42:30;17.40;99.90
14144;DHT22;7152;48.348;10.980;2022-08-03T02:44:58;17.40;99.90
14144;DHT22;7152;48.348;10.980;2022-08-03T02:47:27;17.40;99.90
14144;DHT22;7152;48.348;10.980;2022-08-03T02:49:55;17.40;99.90
14144;DHT22;7152;48.348;10.980;2022-08-03T02:52:25;17.30;99.90
14144;DHT22;7152;48.348;10.980;2022-08-03T02:54:56;17.30;99.90
14144;DHT22;7152;48.348;10.980;2022-08-03T02:57:25;17.40;99.90
14144;DHT22;7152;48.348;10.980;2022-08-03T02:59:53;17.40;99.90
14144;DHT22;7152;48.348;10.980;2022-08-03T03:02:20;17.40;99.90
14144;DHT22;7152;48.348;10.980;2022-08-03T03:04:50;17.40;99.90
14144;DHT22;7152;48.348;10.980;2022-08-03T03:07:16;17.40;99.90
14144;DHT22;7152;48.348;10.980;2022-08-03T03:09:42;17.30;99.90
14144;DHT22;7152;48.348;10.980;2022-08-03T03:12:10;17.30;99.90
14144;DHT22;7152;48.348;10.980;2022-08-03T03:14:37;17.30;99.90
14144;DHT22;7152;48.348;10.980;2022-08-03T03:17:05;17.30;99.90
14144;DHT22;7152;48.348;10.980;2022-08-03T03:19:32;17.30;99.90
14144;DHT22;7152;48.348;10.980;2022-08-03T03:22:00;17.30;99.90
14144;DHT22;7152;48.348;10.980;2022-08-03T03:24:29;17.30;99.90
14144;DHT22;7152;48.348;10.980;2022-08-03T03:26:56;17.30;99.90
14144;DHT22;7152;48.348;10.980;2022-08-03T03:29:22;17.30;99.90
14144;DHT22;7152;48.348;10.980;2022-08-03T03:31:48;17.20;99.90
14144;DHT22;7152;48.348;10.980;2022-08-03T03:34:14;17.20;99.90
14144;DHT22;7152;48.348;10.980;2022-08-03T03:36:40;17.20;99.90
14144;DHT22;7152;48.348;10.980;2022-08-03T03:39:06;17.20;99.90
14144;DHT22;7152;48.348;10.980;2022-08-03T03:41:32;17.20;99.90
14144;DHT22;7152;48.348;10.980;2022-08-03T03:43:58;17.20;99.90
14144;DHT22;7152;48.348;10.980;2022-08-03T03:46:24;17.10;99.90
14144;DHT22;7152;48.348;10.980;2022-08-03T03:48:50;17.10;99.90
14144;DHT22;7152;48.348;10.980;2022-08-03T03:51:15;17.10;99.90
14144;DHT22;7152;48.348;10.980;2022-08-03T03:53:56;17.00;99.90
14144;DHT22;7152;48.348;10.980;2022-08-03T03:56:22;17.00;99.90
14144;DHT22;7152;48.348;10.980;2022-08-03T03:58:48;17.00;99.90
14144;DHT22;7152;48.348;10.980;2022-08-03T04:01:15;17.00;99.90
14144;DHT22;7152;48.348;10.980;2022-08-03T04:03:41;17.00;99.90
14144;DHT22;7152;48.348;10.980;2022-08-03T04:06:06;17.00;99.90
14144;DHT22;7152;48.348;10.980;2022-08-03T04:08:51;17.00;99.90
14144;DHT22;7152;48.348;10.980;2022-08-03T04:12:01;17.00;99.90
14144;DHT22;7152;48.348;10.980;2022-08-03T04:14:35;17.00;99.90
14144;DHT22;7152;48.348;10.980;2022-08-03T04:17:04;17.00;99.90
14144;DHT22;7152;48.348;10.980;2022-08-03T04:19:52;17.10;99.90
14144;DHT22;7152;48.348;10.980;2022-08-03T04:22:21;17.10;99.90
14144;DHT22;7152;48.348;10.980;2022-08-03T04:24:57;17.10;99.90
14144;DHT22;7152;48.348;10.980;2022-08-03T04:27:26;17.10;99.90
14144;DHT22;7152;48.348;10.980;2022-08-03T04:29:54;17.10;99.90
14144;DHT22;7152;48.348;10.980;2022-08-03T04:32:22;17.10;99.90
14144;DHT22;7152;48.348;10.980;2022-08-03T04:34:50;17.10;99.90
14144;DHT22;7152;48.348;10.980;2022-08-03T04:39:56;17.10;99.90
14144;DHT22;7152;48.348;10.980;2022-08-03T04:42:23;17.10;99.90
14144;DHT22;7152;48.348;10.980;2022-08-03T04:44:51;17.10;99.90
14144;DHT22;7152;48.348;10.980;2022-08-03T04:47:18;17.20;99.90
14144;DHT22;7152;48.348;10.980;2022-08-03T04:49:44;17.10;99.90
14144;DHT22;7152;48.348;10.980;2022-08-03T04:52:10;17.20;99.90
14144;DHT22;7152;48.348;10.980;2022-08-03T04:54:41;17.20;99.90
14144;DHT22;7152;48.348;10.980;2022-08-03T04:57:07;17.30;99.90
14144;DHT22;7152;48.348;10.980;2022-08-03T04:59:32;17.20;99.90
14144;DHT22;7152;48.348;10.980;2022-08-03T05:01:58;17.30;99.90
14144;DHT22;7152;48.348;10.980;2022-08-03T05:04:24;17.30;99.90
14144;DHT22;7152;48.348;10.980;2022-08-03T05:06:49;17.30;99.90
14144;DHT22;7152;48.348;10.980;2022-08-03T05:09:15;17.30;99.90
14144;DHT22;7152;48.348;10.980;2022-08-03T05:11:40;17.30;99.90
14144;DHT22;7152;48.348;10.980;2022-08-03T05:14:06;17.30;99.90
14144;DHT22;7152;48.348;10.980;2022-08-03T05:16:32;17.30;99.90
14144;DHT22;7152;48.348;10.980;2022-08-03T05:18:57;17.30;99.90
14144;DHT22;7152;48.348;10.980;2022-08-03T05:21:23;17.30;99.90
14144;DHT22;7152;48.348;10.980;2022-08-03T05:23:49;17.40;99.90
14144;DHT22;7152;48.348;10.980;2022-08-03T05:26:14;17.40;99.90
14144;DHT22;7152;48.348;10.980;2022-08-03T05:28:40;17.50;99.90
14144;DHT22;7152;48.348;10.980;2022-08-03T05:31:06;17.50;99.90
14144;DHT22;7152;48.348;10.980;2022-08-03T05:33:32;17.50;99.90
14144;DHT22;7152;48.348;10.980;2022-08-03T05:35:57;17.60;99.90
14144;DHT22;7152;48.348;10.980;2022-08-03T05:38:24;17.60;99.90
14144;DHT22;7152;48.348;10.980;2022-08-03T05:40:50;17.80;99.90
14144;DHT22;7152;48.348;10.980;2022-08-03T05:43:15;17.80;99.90
14144;DHT22;7152;48.348;10.980;2022-08-03T05:45:41;17.80;99.90
14144;DHT22;7152;48.348;10.980;2022-08-03T05:48:07;17.90;99.90
14144;DHT22;7152;48.348;10.980;2022-08-03T05:50:33;18.00;99.90
14144;DHT22;7152;48.348;10.980;2022-08-03T05:53:00;18.00;99.90
14144;DHT22;7152;48.348;10.980;2022-08-03T05:55:26;18.10;99.90
14144;DHT22;7152;48.348;10.980;2022-08-03T05:57:51;18.20;99.90
14144;DHT22;7152;48.348;10.980;2022-08-03T06:00:17;18.20;99.90
14144;DHT22;7152;48.348;10.980;2022-08-03T06:02:43;18.30;99.90
14144;DHT22;7152;48.348;10.980;2022-08-03T06:05:09;18.40;99.90
14144;DHT22;7152;48.348;10.980;2022-08-03T06:07:35;18.40;99.90
14144;DHT22;7152;48.348;10.980;2022-08-03T06:10:01;18.50;99.90
14144;DHT22;7152;48.348;10.980;2022-08-03T06:12:28;18.50;99.90
14144;DHT22;7152;48.348;10.980;2022-08-03T06:14:54;18.70;99.90
14144;DHT22;7152;48.348;10.980;2022-08-03T06:17:20;18.70;99.90
14144;DHT22;7152;48.348;10.980;2022-08-03T06:19:45;18.80;99.90
14144;DHT22;7152;48.348;10.980;2022-08-03T06:22:11;18.90;99.90
14144;DHT22;7152;48.348;10.980;2022-08-03T06:24:37;18.90;99.90
14144;DHT22;7152;48.348;10.980;2022-08-03T06:27:02;19.00;99.90
14144;DHT22;7152;48.348;10.980;2022-08-03T06:29:29;19.10;99.90
14144;DHT22;7152;48.348;10.980;2022-08-03T06:31:54;19.20;99.90
14144;DHT22;7152;48.348;10.980;2022-08-03T06:34:20;19.20;99.90
14144;DHT22;7152;48.348;10.980;2022-08-03T06:36:46;19.30;99.90
14144;DHT22;7152;48.348;10.980;2022-08-03T06:39:12;19.40;99.90
14144;DHT22;7152;48.348;10.980;2022-08-03T06:41:38;19.50;99.90
14144;DHT22;7152;48.348;10.980;2022-08-03T06:44:04;19.60;99.90
14144;DHT22;7152;48.348;10.980;2022-08-03T06:46:30;19.70;99.90
14144;DHT22;7152;48.348;10.980;2022-08-03T06:48:55;19.70;99.90
14144;DHT22;7152;48.348;10.980;2022-08-03T06:51:21;19.80;99.90
14144;DHT22;7152;48.348;10.980;2022-08-03T06:53:48;19.90;99.90
14144;DHT22;7152;48.348;10.980;2022-08-03T06:56:13;20.10;99.90
14144;DHT22;7152;48.348;10.980;2022-08-03T06:58:39;20.20;99.90
14144;DHT22;7152;48.348;10.980;2022-08-03T07:01:05;20.30;99.90
14144;DHT22;7152;48.348;10.980;2022-08-03T07:03:30;20.40;99.90
14144;DHT22;7152;48.348;10.980;2022-08-03T07:05:56;20.50;99.90
14144;DHT22;7152;48.348;10.980;2022-08-03T07:08:22;20.70;99.90
14144;DHT22;7152;48.348;10.980;2022-08-03T07:10:48;20.80;99.90
14144;DHT22;7152;48.348;10.980;2022-08-03T07:13:14;20.90;99.90
14144;DHT22;7152;48.348;10.980;2022-08-03T07:15:40;21.10;99.90
14144;DHT22;7152;48.348;10.980;2022-08-03T07:18:05;21.20;99.90
14144;DHT22;7152;48.348;10.980;2022-08-03T07:20:31;21.40;99.90
14144;DHT22;7152;48.348;10.980;2022-08-03T07:22:57;21.60;99.90
14144;DHT22;7152;48.348;10.980;2022-08-03T07:25:23;21.70;99.90
14144;DHT22;7152;48.348;10.980;2022-08-03T07:27:49;21.80;99.90
14144;DHT22;7152;48.348;10.980;2022-08-03T07:30:15;22.00;99.90
14144;DHT22;7152;48.348;10.980;2022-08-03T07:32:41;22.10;99.90
14144;DHT22;7152;48.348;10.980;2022-08-03T07:35:08;22.20;99.90
14144;DHT22;7152;48.348;10.980;2022-08-03T07:37:34;22.30;99.90
14144;DHT22;7152;48.348;10.980;2022-08-03T07:40:01;22.50;99.90
14144;DHT22;7152;48.348;10.980;2022-08-03T07:42:28;22.60;99.90
14144;DHT22;7152;48.348;10.980;2022-08-03T07:44:54;22.70;99.90
14144;DHT22;7152;48.348;10.980;2022-08-03T07:47:23;22.80;99.90
14144;DHT22;7152;48.348;10.980;2022-08-03T07:49:49;22.80;99.90
14144;DHT22;7152;48.348;10.980;2022-08-03T07:52:15;22.80;99.90
14144;DHT22;7152;48.348;10.980;2022-08-03T07:54:59;22.70;99.90
14144;DHT22;7152;48.348;10.980;2022-08-03T07:57:25;22.70;99.90
14144;DHT22;7152;48.348;10.980;2022-08-03T07:59:50;22.70;99.90
14144;DHT22;7152;48.348;10.980;2022-08-03T08:02:16;22.80;99.90
14144;DHT22;7152;48.348;10.980;2022-08-03T08:04:41;22.80;99.90
14144;DHT22;7152;48.348;10.980;2022-08-03T08:07:07;22.80;99.90
14144;DHT22;7152;48.348;10.980;2022-08-03T08:09:33;22.90;99.90
14144;DHT22;7152;48.348;10.980;2022-08-03T08:11:59;23.00;99.90
14144;DHT22;7152;48.348;10.980;2022-08-03T08:14:25;23.00;99.90
14144;DHT22;7152;48.348;10.980;2022-08-03T08:16:51;23.10;99.90
14144;DHT22;7152;48.348;10.980;2022-08-03T08:19:16;23.10;99.90
14144;DHT22;7152;48.348;10.980;2022-08-03T08:21:43;23.20;99.90
14144;DHT22;7152;48.348;10.980;2022-08-03T08:24:08;23.20;99.90
14144;DHT22;7152;48.348;10.980;2022-08-03T08:26:35;23.30;99.90
14144;DHT22;7152;48.348;10.980;2022-08-03T08:29:01;23.40;99.90
14144;DHT22;7152;48.348;10.980;2022-08-03T08:31:27;23.50;99.90
14144;DHT22;7152;48.348;10.980;2022-08-03T08:33:52;23.60;99.90
14144;DHT22;7152;48.348;10.980;2022-08-03T08:36:18;23.70;99.90
14144;DHT22;7152;48.348;10.980;2022-08-03T08:38:44;23.70;99.90
14144;DHT22;7152;48.348;10.980;2022-08-03T08:41:12;23.80;99.90
14144;DHT22;7152;48.348;10.980;2022-08-03T08:43:37;24.00;99.90
14144;DHT22;7152;48.348;10.980;2022-08-03T08:46:04;24.10;99.90
14144;DHT22;7152;48.348;10.980;2022-08-03T08:48:35;24.20;99.90
14144;DHT22;7152;48.348;10.980;2022-08-03T08:51:03;24.30;99.90
14144;DHT22;7152;48.348;10.980;2022-08-03T08:53:30;24.30;99.90
14144;DHT22;7152;48.348;10.980;2022-08-03T08:55:59;24.40;99.90
14144;DHT22;7152;48.348;10.980;2022-08-03T08:58:27;24.50;99.90
14144;DHT22;7152;48.348;10.980;2022-08-03T09:00:53;24.60;99.90
14144;DHT22;7152;48.348;10.980;2022-08-03T09:03:19;24.70;99.90
14144;DHT22;7152;48.348;10.980;2022-08-03T09:05:45;24.80;99.90
14144;DHT22;7152;48.348;10.980;2022-08-03T09:08:11;24.90;99.90
14144;DHT22;7152;48.348;10.980;2022-08-03T09:10:37;25.00;99.90
14144;DHT22;7152;48.348;10.980;2022-08-03T09:13:02;25.10;99.90
14144;DHT22;7152;48.348;10.980;2022-08-03T09:15:30;25.20;99.90
14144;DHT22;7152;48.348;10.980;2022-08-03T09:18:01;25.40;99.90
14144;DHT22;7152;48.348;10.980;2022-08-03T09:20:29;25.50;99.90
14144;DHT22;7152;48.348;10.980;2022-08-03T09:22:58;25.60;99.90
14144;DHT22;7152;48.348;10.980;2022-08-03T09:25:31;25.70;99.90
14144;DHT22;7152;48.348;10.980;2022-08-03T09:28:15;25.80;99.90
14144;DHT22;7152;48.348;10.980;2022-08-03T09:30:43;25.90;99.90
14144;DHT22;7152;48.348;10.980;2022-08-03T09:33:11;25.90;99.90
14144;DHT22;7152;48.348;10.980;2022-08-03T09:35:46;26.00;99.90
14144;DHT22;7152;48.348;10.980;2022-08-03T09:38:20;26.10;99.90
14144;DHT22;7152;48.348;10.980;2022-08-03T09:40:51;26.20;99.90
14144;DHT22;7152;48.348;10.980;2022-08-03T09:43:17;26.20;99.90
14144;DHT22;7152;48.348;10.980;2022-08-03T09:45:43;26.30;99.90
14144;DHT22;7152;48.348;10.980;2022-08-03T09:48:29;26.40;99.90
14144;DHT22;7152;48.348;10.980;2022-08-03T09:50:56;26.50;99.90
14144;DHT22;7152;48.348;10.980;2022-08-03T09:53:22;26.70;99.90
14144;DHT22;7152;48.348;10.980;2022-08-03T09:56:00;26.80;99.90
14144;DHT22;7152;48.348;10.980;2022-08-03T09:58:28;26.90;99.90
14144;DHT22;7152;48.348;10.980;2022-08-03T10:03:27;27.10;99.90
14144;DHT22;7152;48.348;10.980;2022-08-03T10:05:54;27.30;99.90
14144;DHT22;7152;48.348;10.980;2022-08-03T10:08:20;27.40;99.90
14144;DHT22;7152;48.348;10.980;2022-08-03T10:10:48;27.60;99.90
14144;DHT22;7152;48.348;10.980;2022-08-03T10:13:16;27.80;99.90
14144;DHT22;7152;48.348;10.980;2022-08-03T10:15:42;28.00;99.90
14144;DHT22;7152;48.348;10.980;2022-08-03T10:18:07;28.10;99.90
14144;DHT22;7152;48.348;10.980;2022-08-03T10:20:42;28.10;99.90
14144;DHT22;7152;48.348;10.980;2022-08-03T10:23:09;28.30;99.90
14144;DHT22;7152;48.348;10.980;2022-08-03T10:25:37;28.40;99.90
14144;DHT22;7152;48.348;10.980;2022-08-03T10:28:03;28.60;99.90
14144;DHT22;7152;48.348;10.980;2022-08-03T10:30:31;28.80;99.90
14144;DHT22;7152;48.348;10.980;2022-08-03T10:35:24;29.30;99.90
14144;DHT22;7152;48.348;10.980;2022-08-03T10:38:01;29.50;99.90
14144;DHT22;7152;48.348;10.980;2022-08-03T10:40:30;29.70;99.90
14144;DHT22;7152;48.348;10.980;2022-08-03T10:42:59;29.90;99.90
14144;DHT22;7152;48.348;10.980;2022-08-03T10:45:27;30.10;98.00
14144;DHT22;7152;48.348;10.980;2022-08-03T10:47:56;30.30;97.50
14144;DHT22;7152;48.348;10.980;2022-08-03T10:50:24;30.50;94.80
14144;DHT22;7152;48.348;10.980;2022-08-03T10:52:57;30.60;93.00
14144;DHT22;7152;48.348;10.980;2022-08-03T11:01:09;31.50;92.10
14144;DHT22;7152;48.348;10.980;2022-08-03T11:06:19;32.10;90.40
14144;DHT22;7152;48.348;10.980;2022-08-03T11:08:46;32.20;89.60
14144;DHT22;7152;48.348;10.980;2022-08-03T11:14:10;32.60;88.20
14144;DHT22;7152;48.348;10.980;2022-08-03T11:16:48;33.00;84.70
14144;DHT22;7152;48.348;10.980;2022-08-03T11:19:18;33.10;85.20
14144;DHT22;7152;48.348;10.980;2022-08-03T11:29:59;34.40;83.00
14144;DHT22;7152;48.348;10.980;2022-08-03T11:35:11;34.90;80.20
14144;DHT22;7152;48.348;10.980;2022-08-03T11:40:52;35.90;76.30
14144;DHT22;7152;48.348;10.980;2022-08-03T11:46:01;36.70;74.90
14144;DHT22;7152;48.348;10.980;2022-08-03T11:51:00;37.50;72.30
14144;DHT22;7152;48.348;10.980;2022-08-03T11:53:26;37.60;69.30
14144;DHT22;7152;48.348;10.980;2022-08-03T11:55:52;37.90;67.80
14144;DHT22;7152;48.348;10.980;2022-08-03T11:58:20;38.00;66.00
14144;DHT22;7152;48.348;10.980;2022-08-03T12:00:47;38.30;65.00
14144;DHT22;7152;48.348;10.980;2022-08-03T12:03:15;38.50;64.20
14144;DHT22;7152;48.348;10.980;2022-08-03T12:05:51;38.70;63.70
14144;DHT22;7152;48.348;10.980;2022-08-03T12:08:28;38.80;62.50
14144;DHT22;7152;48.348;10.980;2022-08-03T12:10:57;38.90;60.90
14144;DHT22;7152;48.348;10.980;2022-08-03T12:13:23;39.00;60.20
14144;DHT22;7152;48.348;10.980;2022-08-03T12:15:55;39.30;61.00
14144;DHT22;7152;48.348;10.980;2022-08-03T12:18:22;39.70;59.80
14144;DHT22;7152;48.348;10.980;2022-08-03T12:20:50;40.00;59.50
14144;DHT22;7152;48.348;10.980;2022-08-03T12:23:17;40.00;58.10
14144;DHT22;7152;48.348;10.980;2022-08-03T12:25:44;40.10;57.50
14144;DHT22;7152;48.348;10.980;2022-08-03T12:28:18;40.60;57.00
14144;DHT22;7152;48.348;10.980;2022-08-03T12:30:47;40.90;55.80
14144;DHT22;7152;48.348;10.980;2022-08-03T12:33:24;41.10;55.00
14144;DHT22;7152;48.348;10.980;2022-08-03T12:36:10;41.40;54.50
14144;DHT22;7152;48.348;10.980;2022-08-03T12:38:37;41.60;52.00
14144;DHT22;7152;48.348;10.980;2022-08-03T12:41:07;41.90;51.70
14144;DHT22;7152;48.348;10.980;2022-08-03T12:43:49;42.10;50.60
14144;DHT22;7152;48.348;10.980;2022-08-03T12:46:17;42.10;48.50
14144;DHT22;7152;48.348;10.980;2022-08-03T12:52:16;42.40;47.40
14144;DHT22;7152;48.348;10.980;2022-08-03T12:54:20;42.20;47.20
14144;DHT22;7152;48.348;10.980;2022-08-03T12:59:32;42.70;46.00
14144;DHT22;7152;48.348;10.980;2022-08-03T13:01:58;42.70;46.90
14144;DHT22;7152;48.348;10.980;2022-08-03T13:04:34;43.00;47.60
14144;DHT22;7152;48.348;10.980;2022-08-03T13:07:05;43.20;47.00
14144;DHT22;7152;48.348;10.980;2022-08-03T13:09:50;43.10;46.90
14144;DHT22;7152;48.348;10.980;2022-08-03T13:12:27;43.50;46.00
14144;DHT22;7152;48.348;10.980;2022-08-03T13:14:58;43.60;46.30
14144;DHT22;7152;48.348;10.980;2022-08-03T13:17:24;43.80;45.90
14144;DHT22;7152;48.348;10.980;2022-08-03T13:19:50;44.00;45.30
14144;DHT22;7152;48.348;10.980;2022-08-03T13:22:26;44.30;44.40
14144;DHT22;7152;48.348;10.980;2022-08-03T13:24:55;44.50;44.50
14144;DHT22;7152;48.348;10.980;2022-08-03T13:27:22;44.60;44.20
14144;DHT22;7152;48.348;10.980;2022-08-03T13:29:48;44.80;44.10
14144;DHT22;7152;48.348;10.980;2022-08-03T13:32:13;44.90;43.80
14144;DHT22;7152;48.348;10.980;2022-08-03T13:34:39;45.30;43.90
14144;DHT22;7152;48.348;10.980;2022-08-03T13:37:05;45.40;43.00
14144;DHT22;7152;48.348;10.980;2022-08-03T13:39:30;45.30;42.00
14144;DHT22;7152;48.348;10.980;2022-08-03T13:41:56;45.50;42.20
14144;DHT22;7152;48.348;10.980;2022-08-03T13:44:22;45.70;41.90
14144;DHT22;7152;48.348;10.980;2022-08-03T13:46:48;45.60;41.70
14144;DHT22;7152;48.348;10.980;2022-08-03T13:49:14;45.70;40.90
14144;DHT22;7152;48.348;10.980;2022-08-03T13:51:40;45.80;40.80
14144;DHT22;7152;48.348;10.980;2022-08-03T13:54:06;46.00;40.90
14144;DHT22;7152;48.348;10.980;2022-08-03T13:56:31;45.90;40.20
14144;DHT22;7152;48.348;10.980;2022-08-03T13:58:57;45.90;40.60
14144;DHT22;7152;48.348;10.980;2022-08-03T14:01:24;46.10;39.60
14144;DHT22;7152;48.348;10.980;2022-08-03T14:03:49;45.70;39.10
14144;DHT22;7152;48.348;10.980;2022-08-03T14:06:23;45.90;39.80
14144;DHT22;7152;48.348;10.980;2022-08-03T14:08:49;45.90;39.70
14144;DHT22;7152;48.348;10.980;2022-08-03T14:11:15;46.00;39.80
14144;DHT22;7152;48.348;10.980;2022-08-03T14:13:42;46.40;40.20
14144;DHT22;7152;48.348;10.980;2022-08-03T14:16:07;46.60;40.10
14144;DHT22;7152;48.348;10.980;2022-08-03T14:18:33;46.80;39.50
14144;DHT22;7152;48.348;10.980;2022-08-03T14:21:03;46.90;38.90
14144;DHT22;7152;48.348;10.980;2022-08-03T14:23:29;47.10;38.90
14144;DHT22;7152;48.348;10.980;2022-08-03T14:25:55;46.90;37.50
14144;DHT22;7152;48.348;10.980;2022-08-03T14:28:21;46.90;36.90
14144;DHT22;7152;48.348;10.980;2022-08-03T14:30:47;47.20;37.30
14144;DHT22;7152;48.348;10.980;2022-08-03T14:33:13;47.30;37.40
14144;DHT22;7152;48.348;10.980;2022-08-03T14:35:39;47.60;37.80
14144;DHT22;7152;48.348;10.980;2022-08-03T14:38:05;47.70;37.70
14144;DHT22;7152;48.348;10.980;2022-08-03T14:40:31;47.80;37.30
14144;DHT22;7152;48.348;10.980;2022-08-03T14:42:56;48.10;37.60
14144;DHT22;7152;48.348;10.980;2022-08-03T14:45:22;48.20;37.30
14144;DHT22;7152;48.348;10.980;2022-08-03T14:47:49;48.10;37.40
14144;DHT22;7152;48.348;10.980;2022-08-03T14:50:16;48.10;37.30
14144;DHT22;7152;48.348;10.980;2022-08-03T14:52:41;48.10;36.20
14144;DHT22;7152;48.348;10.980;2022-08-03T14:55:07;48.00;35.70
14144;DHT22;7152;48.348;10.980;2022-08-03T14:57:33;48.20;35.70
14144;DHT22;7152;48.348;10.980;2022-08-03T14:59:59;48.30;35.90
14144;DHT22;7152;48.348;10.980;2022-08-03T15:02:25;48.40;36.20
14144;DHT22;7152;48.348;10.980;2022-08-03T15:04:52;48.40;35.30
14144;DHT22;7152;48.348;10.980;2022-08-03T15:07:17;48.50;35.00
14144;DHT22;7152;48.348;10.980;2022-08-03T15:09:44;48.40;34.80
14144;DHT22;7152;48.348;10.980;2022-08-03T15:12:10;48.30;35.00
14144;DHT22;7152;48.348;10.980;2022-08-03T15:14:36;48.40;34.70
14144;DHT22;7152;48.348;10.980;2022-08-03T15:17:01;48.20;35.30
14144;DHT22;7152;48.348;10.980;2022-08-03T15:19:27;48.10;34.90
14144;DHT22;7152;48.348;10.980;2022-08-03T15:21:53;48.00;34.80
14144;DHT22;7152;48.348;10.980;2022-08-03T15:24:18;48.10;35.10
14144;DHT22;7152;48.348;10.980;2022-08-03T15:26:44;48.00;35.00
14144;DHT22;7152;48.348;10.980;2022-08-03T15:29:09;48.10;34.80
14144;DHT22;7152;48.348;10.980;2022-08-03T15:31:35;48.00;34.60
14144;DHT22;7152;48.348;10.980;2022-08-03T15:34:01;47.80;34.00
14144;DHT22;7152;48.348;10.980;2022-08-03T15:36:29;47.50;34.40
14144;DHT22;7152;48.348;10.980;2022-08-03T15:38:58;47.10;35.30
14144;DHT22;7152;48.348;10.980;2022-08-03T15:41:24;47.00;35.20
14144;DHT22;7152;48.348;10.980;2022-08-03T15:43:50;47.00;35.00
14144;DHT22;7152;48.348;10.980;2022-08-03T15:46:18;47.00;35.00
14144;DHT22;7152;48.348;10.980;2022-08-03T15:48:44;47.10;34.70
14144;DHT22;7152;48.348;10.980;2022-08-03T15:51:10;46.90;34.20
14144;DHT22;7152;48.348;10.980;2022-08-03T15:53:36;47.10;34.80
14144;DHT22;7152;48.348;10.980;2022-08-03T15:56:02;47.00;35.20
14144;DHT22;7152;48.348;10.980;2022-08-03T15:58:28;46.90;35.10
14144;DHT22;7152;48.348;10.980;2022-08-03T16:00:55;46.60;34.20
14144;DHT22;7152;48.348;10.980;2022-08-03T16:03:23;46.40;34.50
14144;DHT22;7152;48.348;10.980;2022-08-03T16:05:50;46.30;35.20
14144;DHT22;7152;48.348;10.980;2022-08-03T16:08:15;46.10;35.70
14144;DHT22;7152;48.348;10.980;2022-08-03T16:10:41;46.10;36.30
14144;DHT22;7152;48.348;10.980;2022-08-03T16:13:07;46.00;35.80
14144;DHT22;7152;48.348;10.980;2022-08-03T16:15:33;45.80;36.00
14144;DHT22;7152;48.348;10.980;2022-08-03T16:17:58;45.80;36.60
14144;DHT22;7152;48.348;10.980;2022-08-03T16:20:24;45.80;36.70
14144;DHT22;7152;48.348;10.980;2022-08-03T16:22:50;45.70;36.50
14144;DHT22;7152;48.348;10.980;2022-08-03T16:25:16;45.30;36.90
14144;DHT22;7152;48.348;10.980;2022-08-03T16:27:42;45.30;36.80